createdAt,value
2023-03-26T00:02:21.406Z,7.92
2023-03-26T00:04:47.681Z,7.88
2023-03-26T00:07:14.232Z,7.83
2023-03-26T00:09:40.645Z,7.76
2023-03-26T00:12:06.900Z,7.74
2023-03-26T00:14:33.365Z,7.72
2023-03-26T00:16:59.683Z,7.69
2023-03-26T00:19:25.923Z,7.61
2023-03-26T00:21:53.196Z,7.53
2023-03-26T00:24:19.433Z,7.46
2023-03-26T00:26:53.036Z,7.45
2023-03-26T00:29:19.336Z,7.43
2023-03-26T00:31:46.166Z,7.39
2023-03-26T00:34:15.391Z,7.37
2023-03-26T00:36:42.232Z,7.31
2023-03-26T00:39:09.963Z,7.34
2023-03-26T00:41:37.080Z,7.28
2023-03-26T00:44:04.019Z,7.30
2023-03-26T00:46:31.347Z,7.29
2023-03-26T00:49:01.791Z,7.34
2023-03-26T00:51:28.433Z,7.34
2023-03-26T00:53:54.797Z,7.39
2023-03-26T00:56:21.165Z,7.43
2023-03-26T00:58:49.882Z,7.59
2023-03-26T01:01:18.893Z,7.57
2023-03-26T01:04:00.926Z,7.51
2023-03-26T01:06:58.407Z,7.46
2023-03-26T01:09:30.576Z,7.39
2023-03-26T01:11:56.837Z,7.35
2023-03-26T01:14:24.656Z,7.25
2023-03-26T01:16:55.367Z,7.10
2023-03-26T01:19:33.752Z,7.02
2023-03-26T01:22:00.633Z,7.02
2023-03-26T01:24:26.862Z,6.98
2023-03-26T01:26:57.997Z,6.89
2023-03-26T01:29:31.439Z,6.93
2023-03-26T01:32:09.488Z,6.95
2023-03-26T01:34:43.541Z,6.91
2023-03-26T01:37:18.324Z,6.89
2023-03-26T01:39:53.121Z,6.92
2023-03-26T01:42:31.072Z,6.87
2023-03-26T01:45:01.070Z,6.86
2023-03-26T01:47:27.669Z,6.90
2023-03-26T01:49:53.957Z,6.86
2023-03-26T01:52:22.286Z,6.89
2023-03-26T01:54:48.911Z,6.87
2023-03-26T01:57:19.743Z,6.89
2023-03-26T01:59:45.966Z,6.88
2023-03-26T02:02:35.619Z,6.84
2023-03-26T02:05:09.530Z,6.87
2023-03-26T02:07:41.734Z,6.87
2023-03-26T02:10:13.736Z,6.90
2023-03-26T02:12:41.337Z,6.92
2023-03-26T02:15:07.963Z,6.91
2023-03-26T02:17:34.327Z,6.93
2023-03-26T02:20:10.568Z,7.02
2023-03-26T02:22:40.900Z,7.03
2023-03-26T02:25:08.757Z,7.05
2023-03-26T02:27:35.481Z,7.06
2023-03-26T02:30:02.360Z,7.11
2023-03-26T02:32:29.408Z,7.09
2023-03-26T02:34:55.794Z,7.17
2023-03-26T02:37:22.056Z,7.16
2023-03-26T02:39:48.321Z,7.20
2023-03-26T02:42:16.062Z,7.21
2023-03-26T02:44:42.458Z,7.21
2023-03-26T02:47:08.808Z,7.21
2023-03-26T02:49:35.117Z,7.20
2023-03-26T02:52:01.589Z,7.20
2023-03-26T02:54:27.857Z,7.23
2023-03-26T02:56:54.140Z,7.24
2023-03-26T02:59:20.873Z,7.22
2023-03-26T03:01:47.203Z,7.21
2023-03-26T03:04:13.720Z,7.32
2023-03-26T03:06:40.386Z,7.26
2023-03-26T03:09:08.448Z,7.21
2023-03-26T03:11:35.433Z,7.22
2023-03-26T03:14:01.901Z,7.27
2023-03-26T03:16:28.490Z,7.23
2023-03-26T03:18:57.741Z,7.27
2023-03-26T03:21:25.275Z,7.32
2023-03-26T03:23:51.689Z,7.27
2023-03-26T03:26:21.682Z,7.24
2023-03-26T03:28:48.740Z,7.27
2023-03-26T03:31:15.815Z,7.27
2023-03-26T03:33:42.970Z,7.31
2023-03-26T03:36:20.420Z,7.26
2023-03-26T03:38:47.492Z,7.23
2023-03-26T03:41:13.819Z,7.33
2023-03-26T03:43:40.175Z,7.26
2023-03-26T03:46:06.692Z,7.30
2023-03-26T03:48:33.262Z,7.30
2023-03-26T03:50:59.535Z,7.28
2023-03-26T03:53:28.795Z,7.24
2023-03-26T03:55:55.773Z,7.26
2023-03-26T03:58:24.802Z,7.26
2023-03-26T04:00:51.753Z,7.36
2023-03-26T04:03:19.086Z,7.29
2023-03-26T04:06:00.485Z,7.29
2023-03-26T04:08:26.690Z,7.26
2023-03-26T04:10:52.980Z,7.23
2023-03-26T04:13:19.216Z,7.23
2023-03-26T04:15:45.513Z,7.19
2023-03-26T04:18:11.776Z,7.15
2023-03-26T04:20:40.930Z,7.06
2023-03-26T04:23:08.245Z,7.08
2023-03-26T04:25:36.614Z,7.01
2023-03-26T04:28:06.338Z,7.00
2023-03-26T04:30:33.635Z,7.01
2023-03-26T04:33:03.950Z,6.96
2023-03-26T04:35:34.399Z,6.96
2023-03-26T04:38:01.873Z,7.00
2023-03-26T04:40:30.412Z,7.02
2023-03-26T04:42:59.768Z,6.97
2023-03-26T04:45:26.049Z,6.91
2023-03-26T04:47:52.354Z,6.95
2023-03-26T04:50:18.795Z,6.92
2023-03-26T04:52:45.506Z,6.96
2023-03-26T04:55:24.572Z,6.96
2023-03-26T04:57:53.617Z,6.93
2023-03-26T05:00:20.409Z,6.93
2023-03-26T05:02:50.365Z,6.92
2023-03-26T05:05:17.633Z,6.88
2023-03-26T05:07:45.492Z,6.87
2023-03-26T05:10:13.227Z,6.86
2023-03-26T05:12:39.705Z,6.84
2023-03-26T05:15:06.367Z,6.87
2023-03-26T05:17:34.581Z,6.79
2023-03-26T05:20:01.210Z,6.76
2023-03-26T05:22:27.478Z,6.81
2023-03-26T05:24:53.731Z,6.83
2023-03-26T05:27:23.057Z,6.82
2023-03-26T05:29:49.430Z,6.82
2023-03-26T05:32:15.850Z,6.81
2023-03-26T05:34:42.076Z,6.84
2023-03-26T05:37:09.215Z,6.86
2023-03-26T05:39:35.516Z,6.85
2023-03-26T05:42:01.855Z,6.89
2023-03-26T05:44:28.156Z,6.94
2023-03-26T05:46:54.440Z,6.93
2023-03-26T05:49:20.754Z,6.93
2023-03-26T05:51:46.981Z,6.95
2023-03-26T05:54:13.243Z,6.91
2023-03-26T05:56:39.570Z,6.86
2023-03-26T05:59:06.706Z,6.89
2023-03-26T06:01:32.939Z,6.88
2023-03-26T06:03:59.347Z,6.87
2023-03-26T06:06:26.237Z,6.89
2023-03-26T06:09:00.897Z,6.91
2023-03-26T06:11:29.127Z,6.90
2023-03-26T06:13:55.476Z,6.89
2023-03-26T06:16:27.788Z,6.88
2023-03-26T06:18:56.666Z,6.90
2023-03-26T06:21:24.033Z,6.87
2023-03-26T06:23:51.470Z,6.88
2023-03-26T06:26:17.737Z,6.84
2023-03-26T06:28:44.026Z,6.85
2023-03-26T06:31:10.319Z,6.89
2023-03-26T06:33:36.555Z,6.87
2023-03-26T06:36:02.917Z,6.87
2023-03-26T06:38:29.266Z,6.83
2023-03-26T06:41:01.661Z,6.78
2023-03-26T06:43:27.879Z,6.78
2023-03-26T06:45:54.132Z,6.76
2023-03-26T06:48:20.387Z,6.73
2023-03-26T06:50:46.709Z,6.75
2023-03-26T06:53:13.046Z,6.75
2023-03-26T06:55:39.291Z,6.73
2023-03-26T06:58:05.535Z,6.71
2023-03-26T07:00:31.832Z,6.71
2023-03-26T07:08:39.734Z,6.71
2023-03-26T07:11:06.038Z,6.72
2023-03-26T07:13:32.324Z,6.75
2023-03-26T07:15:58.569Z,6.72
2023-03-26T07:18:24.835Z,6.73
2023-03-26T07:20:51.262Z,6.71
2023-03-26T07:23:20.415Z,6.74
2023-03-26T07:25:50.335Z,6.74
2023-03-26T07:28:28.001Z,6.75
2023-03-26T07:31:07.282Z,6.78
2023-03-26T07:33:42.687Z,6.81
2023-03-26T07:36:29.256Z,6.79
2023-03-26T07:39:14.296Z,6.79
2023-03-26T07:41:51.017Z,6.76
2023-03-26T07:44:36.571Z,6.79
2023-03-26T07:47:08.706Z,6.82
2023-03-26T07:49:35.346Z,6.89
2023-03-26T07:52:02.010Z,6.93
2023-03-26T07:54:28.349Z,6.95
2023-03-26T07:57:04.354Z,6.98
2023-03-26T07:59:49.400Z,6.99
2023-03-26T08:02:16.172Z,6.99
2023-03-26T08:04:42.597Z,7.03
2023-03-26T08:07:11.753Z,7.02
2023-03-26T08:09:58.034Z,7.04
2023-03-26T08:12:47.014Z,7.09
2023-03-26T08:15:32.582Z,7.11
2023-03-26T08:18:27.249Z,7.17
2023-03-26T08:21:29.482Z,7.21
2023-03-26T08:24:27.021Z,7.19
2023-03-26T08:27:05.205Z,7.20
2023-03-26T08:29:49.846Z,7.20
2023-03-26T08:32:17.483Z,7.20
2023-03-26T08:34:43.985Z,7.21
2023-03-26T08:37:10.286Z,7.20
2023-03-26T08:39:38.702Z,7.18
2023-03-26T08:42:23.833Z,7.18
2023-03-26T08:45:07.998Z,7.19
2023-03-26T08:47:43.461Z,7.20
2023-03-26T08:50:12.842Z,7.21
2023-03-26T08:52:39.122Z,7.20
2023-03-26T08:55:31.286Z,7.26
2023-03-26T08:58:09.741Z,7.26
2023-03-26T09:00:36.461Z,7.27
2023-03-26T09:03:21.489Z,7.29
2023-03-26T09:06:02.766Z,7.37
2023-03-26T09:08:54.146Z,7.33
2023-03-26T09:11:39.690Z,7.31
2023-03-26T09:14:08.987Z,7.37
2023-03-26T09:16:38.316Z,7.38
2023-03-26T09:19:16.820Z,7.37
2023-03-26T09:21:46.306Z,7.44
2023-03-26T09:24:12.568Z,7.45
2023-03-26T09:26:57.330Z,7.52
2023-03-26T09:29:42.591Z,7.54
2023-03-26T09:32:27.936Z,7.53
2023-03-26T09:34:54.208Z,7.49
2023-03-26T09:37:57.523Z,7.55
2023-03-26T09:40:29.399Z,7.53
2023-03-26T09:43:02.264Z,7.53
2023-03-26T09:45:28.783Z,7.51
2023-03-26T09:48:05.648Z,7.55
2023-03-26T09:50:37.159Z,7.58
2023-03-26T09:53:08.702Z,7.73
2023-03-26T09:55:44.689Z,7.85
2023-03-26T09:58:21.796Z,7.89
2023-03-26T10:00:50.904Z,8.14
2023-03-26T10:03:25.133Z,8.29
2023-03-26T10:05:58.973Z,8.69
2023-03-26T10:08:29.684Z,8.92
2023-03-26T10:11:02.186Z,9.25
2023-03-26T10:13:40.729Z,9.22
2023-03-26T10:16:19.160Z,9.67
2023-03-26T10:18:56.664Z,9.38
2023-03-26T10:21:41.640Z,9.36
2023-03-26T10:24:23.182Z,9.12
2023-03-26T10:27:10.636Z,9.57
2023-03-26T10:29:55.831Z,9.73
2023-03-26T10:32:22.179Z,9.65
2023-03-26T10:35:17.323Z,9.65
2023-03-26T10:37:44.459Z,9.58
2023-03-26T10:40:27.429Z,9.61
2023-03-26T10:43:13.957Z,9.70
2023-03-26T10:45:43.304Z,9.55
2023-03-26T10:48:17.450Z,9.51
2023-03-26T10:50:56.072Z,9.55
2023-03-26T10:53:29.725Z,9.67
2023-03-26T10:56:00.124Z,9.71
2023-03-26T10:58:29.388Z,9.76
2023-03-26T11:01:19.571Z,9.78
2023-03-26T11:03:51.812Z,9.87
2023-03-26T11:06:29.816Z,9.90
2023-03-26T11:08:59.607Z,9.92
2023-03-26T11:11:36.126Z,9.93
2023-03-26T11:14:02.392Z,9.80
2023-03-26T11:16:51.596Z,10.00
2023-03-26T11:19:24.916Z,9.80
2023-03-26T11:22:01.990Z,8.96
2023-03-26T11:24:37.394Z,8.48
2023-03-26T11:27:27.109Z,8.71
2023-03-26T11:29:56.757Z,9.32
2023-03-26T11:32:27.222Z,9.63
2023-03-26T11:35:04.124Z,9.79
2023-03-26T11:37:45.401Z,9.54
2023-03-26T11:40:20.123Z,9.47
2023-03-26T11:42:47.506Z,9.29
2023-03-26T11:45:19.915Z,9.25
2023-03-26T11:47:51.911Z,9.16
2023-03-26T11:50:23.997Z,9.20
2023-03-26T11:52:50.417Z,9.31
2023-03-26T11:55:16.857Z,10.10
2023-03-26T11:57:47.740Z,10.67
2023-03-26T12:00:18.185Z,11.08
2023-03-26T12:02:45.906Z,11.65
2023-03-26T12:05:14.226Z,11.93
2023-03-26T12:07:49.361Z,12.27
2023-03-26T12:10:23.268Z,12.29
2023-03-26T12:12:51.893Z,12.01
2023-03-26T12:15:19.823Z,11.82
2023-03-26T12:17:47.481Z,12.00
2023-03-26T12:20:26.170Z,12.21
2023-03-26T12:22:58.827Z,11.77
2023-03-26T12:25:28.839Z,11.69
2023-03-26T12:28:02.924Z,11.43
2023-03-26T12:30:37.353Z,11.32
2023-03-26T12:33:08.780Z,11.41
2023-03-26T12:35:35.999Z,12.01
2023-03-26T12:38:17.069Z,12.62
2023-03-26T12:40:43.511Z,12.65
2023-03-26T12:44:54.026Z,12.70
2023-03-26T12:46:20.781Z,12.28
2023-03-26T12:49:08.812Z,12.34
2023-03-26T12:51:38.843Z,12.61
2023-03-26T12:54:13.538Z,12.98
2023-03-26T12:56:42.626Z,13.21
2023-03-26T12:59:15.499Z,13.16
2023-03-26T13:01:55.608Z,12.85
2023-03-26T13:04:28.708Z,12.65
2023-03-26T13:06:59.399Z,12.27
2023-03-26T13:09:45.472Z,12.23
2023-03-26T13:12:23.813Z,12.57
2023-03-26T13:14:50.617Z,12.61
2023-03-26T13:17:26.348Z,12.50
2023-03-26T13:19:52.640Z,12.58
2023-03-26T13:22:31.099Z,12.50
2023-03-26T13:25:06.736Z,12.57
2023-03-26T13:27:49.133Z,12.45
2023-03-26T13:31:56.579Z,12.25
2023-03-26T13:34:36.129Z,12.00
2023-03-26T13:37:22.886Z,11.89
2023-03-26T13:39:54.956Z,11.97
2023-03-26T13:42:40.986Z,11.90
2023-03-26T13:45:31.810Z,12.03
2023-03-26T13:47:59.696Z,11.96
2023-03-26T13:50:30.378Z,11.85
2023-03-26T13:53:25.225Z,12.02
2023-03-26T13:55:59.654Z,12.00
2023-03-26T13:58:47.267Z,12.20
2023-03-26T14:01:19.322Z,12.18
2023-03-26T14:04:05.674Z,12.10
2023-03-26T14:06:46.512Z,12.01
2023-03-26T14:09:24.983Z,11.99
2023-03-26T14:11:57.908Z,12.04
2023-03-26T14:14:49.728Z,12.20
2023-03-26T14:17:39.294Z,12.18
2023-03-26T14:20:17.900Z,12.36
2023-03-26T14:22:56.440Z,12.50
2023-03-26T14:25:44.997Z,12.58
2023-03-26T14:28:42.442Z,12.57
2023-03-26T14:31:47.748Z,12.76
2023-03-26T14:34:33.053Z,12.88
2023-03-26T14:37:33.537Z,13.06
2023-03-26T14:40:18.121Z,13.14
2023-03-26T14:42:56.409Z,13.05
2023-03-26T14:45:44.794Z,12.98
2023-03-26T14:48:33.486Z,12.94
2023-03-26T14:51:33.855Z,13.03
2023-03-26T14:54:07.061Z,12.88
2023-03-26T14:56:49.301Z,12.82
2023-03-26T14:59:27.915Z,12.73
2023-03-26T15:02:11.390Z,12.79
2023-03-26T15:05:01.321Z,12.76
2023-03-26T15:08:04.608Z,12.68
2023-03-26T15:11:14.475Z,12.63
2023-03-26T15:13:59.937Z,12.59
2023-03-26T15:16:43.737Z,12.49
2023-03-26T15:19:45.440Z,12.27
2023-03-26T15:22:49.409Z,12.16
2023-03-26T15:25:38.539Z,12.18
2023-03-26T15:28:39.750Z,11.79
2023-03-26T15:31:18.592Z,11.27
2023-03-26T15:34:06.567Z,11.17
2023-03-26T15:37:00.282Z,11.14
2023-03-26T15:40:12.014Z,11.14
2023-03-26T15:42:45.477Z,11.27
2023-03-26T15:45:32.462Z,11.23
2023-03-26T15:48:11.892Z,10.77
2023-03-26T15:50:59.498Z,9.75
2023-03-26T15:53:47.997Z,9.13
2023-03-26T15:56:20.052Z,8.92
2023-03-26T15:59:00.516Z,8.57
2023-03-26T16:01:48.251Z,8.56
2023-03-26T16:04:19.979Z,8.39
2023-03-26T16:06:58.941Z,8.41
2023-03-26T16:09:40.422Z,8.27
2023-03-26T16:12:12.738Z,8.28
2023-03-26T16:14:48.112Z,8.15
2023-03-26T16:17:23.183Z,8.02
2023-03-26T16:20:19.600Z,7.87
2023-03-26T16:23:04.359Z,7.71
2023-03-26T16:25:35.411Z,7.66
2023-03-26T16:28:32.538Z,7.65
2023-03-26T16:31:10.653Z,7.64
2023-03-26T16:34:18.835Z,7.75
2023-03-26T16:36:49.727Z,7.86
2023-03-26T16:39:24.481Z,7.97
2023-03-26T16:42:06.232Z,7.98
2023-03-26T16:44:37.928Z,8.03
2023-03-26T16:47:17.113Z,8.18
2023-03-26T16:50:28.946Z,8.20
2023-03-26T16:53:13.332Z,8.14
2023-03-26T16:55:46.741Z,8.15
2023-03-26T16:58:27.892Z,8.17
2023-03-26T17:01:07.544Z,8.04
2023-03-26T17:03:44.974Z,8.07
2023-03-26T17:06:26.684Z,8.09
2023-03-26T17:08:59.179Z,8.09
2023-03-26T17:11:54.807Z,8.00
2023-03-26T17:14:33.336Z,8.02
2023-03-26T17:17:02.627Z,8.05
2023-03-26T17:19:38.684Z,8.00
2023-03-26T17:22:26.613Z,8.03
2023-03-26T17:25:25.804Z,8.03
2023-03-26T17:28:07.407Z,8.09
2023-03-26T17:31:16.176Z,8.07
2023-03-26T17:33:43.002Z,8.03
2023-03-26T17:36:11.945Z,7.96
2023-03-26T17:38:45.511Z,7.91
2023-03-26T17:41:14.789Z,7.88
2023-03-26T17:43:52.906Z,7.90
2023-03-26T17:46:27.069Z,7.91
2023-03-26T17:49:23.324Z,7.78
2023-03-26T17:52:12.029Z,7.87
2023-03-26T17:54:44.320Z,7.82
2023-03-26T17:57:23.663Z,7.73
2023-03-26T17:59:56.110Z,7.79
2023-03-26T18:02:33.109Z,7.76
2023-03-26T18:05:01.506Z,7.82
2023-03-26T18:07:45.950Z,7.75
2023-03-26T18:10:43.278Z,7.75
2023-03-26T18:13:37.534Z,7.68
2023-03-26T18:16:24.735Z,7.69
2023-03-26T18:18:57.389Z,7.70
2023-03-26T18:21:32.493Z,7.73
2023-03-26T18:24:01.005Z,7.72
2023-03-26T18:26:39.299Z,7.75
2023-03-26T18:29:16.715Z,7.69
2023-03-26T18:31:43.901Z,7.64
2023-03-26T18:34:18.673Z,7.68
2023-03-26T18:36:47.178Z,7.59
2023-03-26T18:39:13.817Z,7.62
2023-03-26T18:41:42.175Z,7.64
2023-03-26T18:44:15.440Z,7.60
2023-03-26T18:46:43.105Z,7.52
2023-03-26T18:49:14.351Z,7.58
2023-03-26T18:51:53.987Z,7.52
2023-03-26T18:54:23.739Z,7.51
2023-03-26T18:56:51.967Z,7.50
2023-03-26T18:59:31.710Z,7.49
2023-03-26T19:02:13.694Z,7.48
2023-03-26T19:04:46.161Z,7.45
2023-03-26T19:07:16.098Z,7.47
2023-03-26T19:09:44.102Z,7.41
2023-03-26T19:12:32.989Z,7.49
2023-03-26T19:15:16.688Z,7.45
2023-03-26T19:17:46.444Z,7.38
2023-03-26T19:20:22.774Z,7.35
2023-03-26T19:22:50.742Z,7.32
2023-03-26T19:25:28.559Z,7.31
2023-03-26T19:27:55.457Z,7.37
2023-03-26T19:30:39.095Z,7.30
2023-03-26T19:33:16.501Z,7.29
2023-03-26T19:35:45.372Z,7.24
2023-03-26T19:38:26.993Z,7.29
2023-03-26T19:40:56.924Z,7.29
2023-03-26T19:43:25.529Z,7.19
2023-03-26T19:46:00.210Z,7.28
2023-03-26T19:48:45.914Z,7.37
2023-03-26T19:51:34.579Z,7.30
2023-03-26T19:54:06.085Z,7.28
2023-03-26T19:56:33.617Z,7.11
2023-03-26T19:59:00.237Z,7.22
2023-03-26T20:01:29.163Z,7.10
2023-03-26T20:03:58.729Z,7.12
2023-03-26T20:06:41.804Z,7.08
2023-03-26T20:09:10.782Z,7.06
2023-03-26T20:11:39.469Z,7.07
2023-03-26T20:14:15.206Z,6.92
2023-03-26T20:16:44.481Z,7.04
2023-03-26T20:19:13.758Z,7.02
2023-03-26T20:21:41.524Z,7.00
2023-03-26T20:24:14.881Z,7.00
2023-03-26T20:26:42.220Z,7.01
2023-03-26T20:29:08.660Z,7.05
2023-03-26T20:31:35.092Z,7.07
2023-03-26T20:34:01.861Z,7.04
2023-03-26T20:36:34.058Z,7.06
2023-03-26T20:39:05.547Z,7.11
2023-03-26T20:41:32.568Z,7.12
2023-03-26T20:43:58.880Z,7.23
2023-03-26T20:46:31.120Z,7.32
2023-03-26T20:48:59.283Z,7.29
2023-03-26T20:51:27.872Z,7.25
2023-03-26T20:53:54.425Z,7.16
2023-03-26T20:56:20.812Z,7.21
2023-03-26T20:59:03.689Z,7.27
2023-03-26T21:01:37.632Z,7.17
2023-03-26T21:04:04.399Z,7.26
2023-03-26T21:06:30.983Z,7.20
2023-03-26T21:08:57.642Z,7.11
2023-03-26T21:11:37.709Z,7.13
2023-03-26T21:14:15.026Z,7.13
2023-03-26T21:16:42.059Z,7.22
2023-03-26T21:19:10.197Z,7.25
2023-03-26T21:21:43.523Z,7.22
2023-03-26T21:24:32.906Z,7.21
2023-03-26T21:27:08.446Z,7.22
2023-03-26T21:29:35.277Z,7.20
2023-03-26T21:32:01.967Z,7.17
2023-03-26T21:34:29.058Z,7.12
2023-03-26T21:36:55.746Z,7.11
2023-03-26T21:39:22.324Z,7.11
2023-03-26T21:42:05.248Z,7.10
2023-03-26T21:44:33.028Z,7.09
2023-03-26T21:46:59.753Z,7.02
2023-03-26T21:49:26.587Z,7.01
2023-03-26T21:51:53.241Z,7.05
2023-03-26T21:54:27.250Z,7.03
2023-03-26T21:57:21.662Z,7.01
2023-03-26T22:00:16.041Z,7.01
2023-03-26T22:02:51.615Z,7.01
2023-03-26T22:05:19.649Z,6.99
2023-03-26T22:07:46.399Z,6.95
2023-03-26T22:10:12.776Z,6.98
2023-03-26T22:12:39.513Z,6.97
2023-03-26T22:15:06.844Z,6.95
2023-03-26T22:17:33.267Z,6.90
2023-03-26T22:20:01.212Z,6.92
2023-03-26T22:22:28.272Z,6.87
2023-03-26T22:24:54.588Z,6.89
2023-03-26T22:27:20.956Z,6.82
2023-03-26T22:29:47.408Z,6.83
2023-03-26T22:32:13.802Z,6.79
2023-03-26T22:34:41.342Z,6.71
2023-03-26T22:37:07.656Z,6.74
2023-03-26T22:39:33.987Z,6.70
2023-03-26T22:42:02.439Z,6.65
2023-03-26T22:44:28.748Z,6.67
2023-03-26T22:46:56.834Z,6.61
2023-03-26T22:49:26.063Z,6.61
2023-03-26T22:51:52.825Z,6.60
2023-03-26T22:54:19.197Z,6.56
2023-03-26T22:56:45.728Z,6.51
2023-03-26T22:59:13.110Z,6.41
2023-03-26T23:01:39.670Z,6.45
2023-03-26T23:04:06.081Z,6.43
2023-03-26T23:06:32.551Z,6.35
2023-03-26T23:08:58.931Z,6.38
2023-03-26T23:11:25.332Z,6.34
2023-03-26T23:13:51.932Z,6.32
2023-03-26T23:16:19.772Z,6.29
2023-03-26T23:18:46.482Z,6.30
2023-03-26T23:21:22.379Z,6.31
2023-03-26T23:23:50.354Z,6.27
2023-03-26T23:26:16.996Z,6.18
2023-03-26T23:28:43.673Z,6.11
2023-03-26T23:31:12.034Z,6.10
2023-03-26T23:33:45.447Z,6.05
2023-03-26T23:36:18.105Z,6.01
2023-03-26T23:38:46.693Z,5.94
2023-03-26T23:41:17.538Z,5.94
2023-03-26T23:43:54.216Z,5.90
2023-03-26T23:46:30.619Z,5.75
2023-03-26T23:48:59.577Z,5.70
2023-03-26T23:51:26.070Z,5.66
2023-03-26T23:53:53.338Z,5.62
2023-03-26T23:56:20.042Z,5.57
2023-03-26T23:58:48.943Z,5.54
